^^
Your Local Weather - Clay, NY Station Historical Data
Daily Summary for January 31, 2017 Units:  English    Metric   Both
« Previous Day
Next Day »
Daily Weekly Monthly Yearly Custom
  High: Low: Average:
Temperature: 24.2 °F 9.6 °F 18.8 °F
Dew Point: 20.7 °F 6.5 °F 15.4 °F
Humidity: 89% 82% 86%
Wind Speed: 5.0mph 0.0mph 2mph
Wind Gust: 10.0mph - -
Wind- - East
Pressure: 29.93 in 29.68 in -
Precipitation: 0.01 in    
Historical Graphs
 
 
Tabular Data for January 31, 2017
Time Temperature Dew Point Pressure Wind Wind Speed Wind Gust Humidity Rainfall Rate (Hourly) solar
00:04 14.3 °F 11.7 °F 29.93 in Calm     89% 0.00 in 0 W/m2
00:10 14.3 °F 11.7 °F 29.93 in Calm     89% 0.00 in 0 W/m2
00:16 14.5 °F 11.9 °F 29.93 in Calm     89% 0.00 in 0 W/m2
00:22 14.6 °F 11.9 °F 29.93 in Calm     89% 0.00 in 0 W/m2
00:28 14.6 °F 11.9 °F 29.93 in Calm     89% 0.00 in 0 W/m2
00:34 14.6 °F 11.9 °F 29.93 in Calm     89% 0.00 in 0 W/m2
00:40 14.6 °F 11.9 °F 29.93 in Calm     89% 0.00 in 0 W/m2
00:46 14.6 °F 11.9 °F 29.93 in Calm     89% 0.00 in 0 W/m2
00:52 14.8 °F 12.1 °F 29.93 in Calm     89% 0.00 in 0 W/m2
00:58 15.1 °F 12.4 °F 29.93 in Calm     89% 0.00 in 0 W/m2
01:04 15.2 °F 12.5 °F 29.93 in Calm     89% 0.00 in 0 W/m2
01:10 15.5 °F 12.8 °F 29.93 in Calm     89% 0.00 in 0 W/m2
01:16 15.7 °F 13.0 °F 29.93 in Calm     89% 0.00 in 0 W/m2
01:22 15.9 °F 13.2 °F 29.93 in Calm     89% 0.00 in 0 W/m2
01:28 16.1 °F 13.4 °F 29.93 in Calm     89% 0.00 in 0 W/m2
01:34 16.3 °F 13.6 °F 29.93 in Calm     89% 0.00 in 0 W/m2
01:40 16.6 °F 13.9 °F 29.93 in Calm     89% 0.00 in 0 W/m2
01:46 16.7 °F 14.0 °F 29.93 in Calm     89% 0.00 in 0 W/m2
01:52 16.6 °F 13.9 °F 29.93 in Calm     89% 0.00 in 0 W/m2
01:58 16.5 °F 13.8 °F 29.93 in Calm     89% 0.00 in 0 W/m2
02:04 16.5 °F 13.6 °F 29.93 in Calm     88% 0.00 in 0 W/m2
02:10 16.5 °F 13.6 °F 29.93 in Calm     88% 0.00 in 0 W/m2
02:16 16.5 °F 13.6 °F 29.93 in Calm     88% 0.00 in 0 W/m2
02:22 16.2 °F 13.3 °F 29.93 in Calm     88% 0.00 in 0 W/m2
02:28 15.7 °F 12.8 °F 29.93 in Calm     88% 0.00 in 0 W/m2
02:34 14.8 °F 11.6 °F 29.92 in Calm     87% 0.00 in 0 W/m2
02:40 14.1 °F 10.9 °F 29.92 in Calm     87% 0.00 in 0 W/m2
02:46 13.4 °F 10.3 °F 29.91 in Calm     87% 0.00 in 0 W/m2
02:52 12.8 °F 9.4 °F 29.91 in Calm     86% 0.00 in 0 W/m2
02:58 12.2 °F 8.8 °F 29.90 in Calm     86% 0.00 in 0 W/m2
03:04 11.8 °F 8.4 °F 29.90 in Calm     86% 0.00 in 0 W/m2
03:10 11.4 °F 8.3 °F 29.90 in Calm     87% 0.00 in 0 W/m2
03:16 11.2 °F 8.1 °F 29.90 in Calm     87% 0.00 in 0 W/m2
03:22 11.0 °F 7.9 °F 29.89 in Calm     87% 0.00 in 0 W/m2
03:28 11.0 °F 8.1 °F 29.89 in Calm     88% 0.00 in 0 W/m2
03:34 11.6 °F 8.7 °F 29.89 in Calm     88% 0.00 in 0 W/m2
03:40 11.4 °F 8.5 °F 29.88 in Calm     88% 0.00 in 0 W/m2
03:46 11.1 °F 8.2 °F 29.88 in Calm     88% 0.00 in 0 W/m2
03:52 10.8 °F 7.7 °F 29.88 in Calm     87% 0.00 in 0 W/m2
03:58 10.5 °F 7.4 °F 29.88 in Calm     87% 0.00 in 0 W/m2
04:04 10.3 °F 7.2 °F 29.87 in Calm     87% 0.00 in 0 W/m2
04:10 10.1 °F 7.0 °F 29.88 in Calm     87% 0.00 in 0 W/m2
04:16 10.0 °F 6.9 °F 29.87 in Calm     87% 0.00 in 0 W/m2
04:22 9.9 °F 6.8 °F 29.87 in Calm     87% 0.00 in 0 W/m2
04:28 9.6 °F 6.8 °F 29.87 in Calm     88% 0.00 in 0 W/m2
04:34 9.6 °F 6.5 °F 29.87 in Calm     87% 0.00 in 0 W/m2
04:40 9.6 °F 6.8 °F 29.87 in Calm   1.0 mph 88% 0.00 in 0 W/m2
04:46 10.2 °F 7.4 °F 29.86 in Calm   1.0 mph 88% 0.00 in 0 W/m2
04:52 10.9 °F 8.0 °F 29.86 in East 1.0 mph 1.0 mph 88% 0.00 in 0 W/m2
04:58 11.3 °F 8.4 °F 29.86 in East 1.0 mph 2.0 mph 88% 0.00 in 0 W/m2
05:04 11.4 °F 8.5 °F 29.85 in East 1.0 mph 1.0 mph 88% 0.00 in 0 W/m2
05:10 11.2 °F 8.1 °F 29.85 in East 1.0 mph 1.0 mph 87% 0.00 in 0 W/m2
05:16 11.5 °F 8.6 °F 29.85 in East 1.0 mph 2.0 mph 88% 0.00 in 0 W/m2
05:22 11.8 °F 8.9 °F 29.85 in Calm   1.0 mph 88% 0.00 in 0 W/m2
05:28 11.3 °F 8.2 °F 29.85 in Calm   1.0 mph 87% 0.00 in 0 W/m2
05:34 10.8 °F 7.4 °F 29.85 in Calm     86% 0.00 in 0 W/m2
05:40 10.4 °F 7.0 °F 29.85 in Calm     86% 0.00 in 0 W/m2
05:46 10.5 °F 7.4 °F 29.85 in Calm     87% 0.00 in 0 W/m2
05:52 10.2 °F 7.1 °F 29.85 in Calm     87% 0.00 in 0 W/m2
05:58 10.0 °F 6.9 °F 29.84 in Calm   1.0 mph 87% 0.00 in 0 W/m2
06:04 9.8 °F 6.7 °F 29.84 in East 1.0 mph 2.0 mph 87% 0.00 in 0 W/m2
06:10 10.2 °F 7.4 °F 29.84 in East 1.0 mph 1.0 mph 88% 0.00 in 0 W/m2
06:16 10.4 °F 7.6 °F 29.84 in East 1.0 mph 1.0 mph 88% 0.00 in 0 W/m2
06:22 10.9 °F 8.0 °F 29.84 in ENE 1.0 mph 3.0 mph 88% 0.00 in 0 W/m2
06:28 11.4 °F 8.5 °F 29.83 in East 1.0 mph 3.0 mph 88% 0.00 in 0 W/m2
06:34 11.8 °F 8.9 °F 29.83 in East 1.0 mph 1.0 mph 88% 0.00 in 0 W/m2
06:40 11.9 °F 9.0 °F 29.83 in East 1.0 mph 2.0 mph 88% 0.00 in 0 W/m2
06:46 12.0 °F 9.1 °F 29.83 in ESE 1.0 mph 2.0 mph 88% 0.00 in 0 W/m2
06:52 12.1 °F 9.0 °F 29.83 in East 1.0 mph 2.0 mph 87% 0.00 in 0 W/m2
06:58 12.1 °F 9.0 °F 29.83 in ENE 1.0 mph 3.0 mph 87% 0.00 in 0 W/m2
07:04 12.2 °F 9.1 °F 29.83 in East 1.0 mph 3.0 mph 87% 0.00 in 0 W/m2
07:10 12.4 °F 9.3 °F 29.83 in ENE 2.0 mph 4.0 mph 87% 0.00 in 0 W/m2
07:16 12.5 °F 9.4 °F 29.82 in East 2.0 mph 4.0 mph 87% 0.00 in 0 W/m2
07:22 12.5 °F 9.4 °F 29.82 in East 2.0 mph 5.0 mph 87% 0.00 in 0 W/m2
07:28 12.6 °F 9.5 °F 29.82 in East 2.0 mph 5.0 mph 87% 0.00 in 0 W/m2
07:34 12.7 °F 9.6 °F 29.82 in ENE 2.0 mph 3.0 mph 87% 0.00 in 7 W/m2
07:40 12.8 °F 9.4 °F 29.82 in ENE 2.0 mph 2.0 mph 86% 0.00 in 14 W/m2
07:46 12.9 °F 9.5 °F 29.82 in ENE 2.0 mph 2.0 mph 86% 0.00 in 18 W/m2
07:52 12.9 °F 9.5 °F 29.82 in ENE 2.0 mph 3.0 mph 86% 0.00 in 26 W/m2
07:58 13.0 °F 9.6 °F 29.82 in ENE 2.0 mph 3.0 mph 86% 0.00 in 35 W/m2
08:04 13.2 °F 9.8 °F 29.83 in East 1.0 mph 2.0 mph 86% 0.00 in 33 W/m2
08:10 13.3 °F 9.9 °F 29.83 in ENE 2.0 mph 5.0 mph 86% 0.00 in 42 W/m2
08:16 13.4 °F 10.0 °F 29.83 in ENE 2.0 mph 5.0 mph 86% 0.00 in 44 W/m2
08:22 13.6 °F 10.2 °F 29.82 in ENE 2.0 mph 3.0 mph 86% 0.00 in 42 W/m2
08:28 13.7 °F 10.3 °F 29.83 in East 2.0 mph 3.0 mph 86% 0.00 in 49 W/m2
08:34 13.8 °F 10.4 °F 29.83 in ENE 1.0 mph 3.0 mph 86% 0.00 in 46 W/m2
08:40 14.0 °F 10.3 °F 29.83 in East 2.0 mph 3.0 mph 85% 0.00 in 60 W/m2
08:46 14.3 °F 10.6 °F 29.82 in NE 2.0 mph 3.0 mph 85% 0.00 in 83 W/m2
08:52 14.7 °F 11.0 °F 29.82 in East 2.0 mph 2.0 mph 85% 0.00 in 77 W/m2
08:58 15.1 °F 11.4 °F 29.82 in East 2.0 mph 4.0 mph 85% 0.00 in 67 W/m2
09:04 15.4 °F 11.4 °F 29.82 in East 1.0 mph 2.0 mph 84% 0.00 in 62 W/m2
09:10 15.6 °F 11.6 °F 29.83 in ESE 2.0 mph 2.0 mph 84% 0.00 in 49 W/m2
09:16 15.7 °F 11.5 °F 29.82 in ESE 3.0 mph 5.0 mph 83% 0.00 in 49 W/m2
09:22 16.0 °F 12.0 °F 29.82 in ENE 3.0 mph 3.0 mph 84% 0.00 in 58 W/m2
09:28 16.3 °F 12.0 °F 29.82 in ENE 3.0 mph 7.0 mph 83% 0.00 in 63 W/m2
09:34 16.6 °F 12.6 °F 29.82 in ENE 3.0 mph 3.0 mph 84% 0.00 in 69 W/m2
09:40 16.9 °F 12.9 °F 29.82 in ENE 2.0 mph 3.0 mph 84% 0.00 in 77 W/m2
09:46 17.2 °F 13.2 °F 29.81 in ENE 2.0 mph 4.0 mph 84% 0.00 in 83 W/m2
09:52 17.5 °F 13.5 °F 29.81 in East 3.0 mph 3.0 mph 84% 0.00 in 88 W/m2
09:58 17.7 °F 13.7 °F 29.81 in ENE 3.0 mph 5.0 mph 84% 0.00 in 139 W/m2
10:04 17.7 °F 13.4 °F 29.81 in East 3.0 mph 4.0 mph 83% 0.00 in 146 W/m2
10:10 17.9 °F 13.9 °F 29.80 in SE 3.0 mph 3.0 mph 84% 0.00 in 146 W/m2
10:16 18.2 °F 14.2 °F 29.79 in NE 2.0 mph 4.0 mph 84% 0.00 in 153 W/m2
10:22 18.4 °F 14.4 °F 29.79 in ENE 4.0 mph 4.0 mph 84% 0.00 in 135 W/m2
10:28 18.7 °F 14.7 °F 29.78 in East 4.0 mph 6.0 mph 84% 0.00 in 123 W/m2
10:34 18.8 °F 14.8 °F 29.78 in SE 3.0 mph 4.0 mph 84% 0.00 in 137 W/m2
10:40 19.1 °F 15.1 °F 29.77 in ENE 3.0 mph 3.0 mph 84% 0.00 in 165 W/m2
10:46 19.3 °F 15.5 °F 29.77 in ESE 3.0 mph 7.0 mph 85% 0.00 in 167 W/m2
10:52 19.6 °F 15.8 °F 29.76 in NNE 4.0 mph 4.0 mph 85% 0.00 in 162 W/m2
10:58 19.9 °F 16.1 °F 29.76 in ESE 4.0 mph 4.0 mph 85% 0.00 in 162 W/m2
11:04 20.2 °F 16.4 °F 29.76 in East 4.0 mph 8.0 mph 85% 0.00 in 155 W/m2
11:10 20.2 °F 16.1 °F 29.76 in ENE 5.0 mph 5.0 mph 84% 0.00 in 113 W/m2
11:16 20.1 °F 16.0 °F 29.75 in ESE 5.0 mph 10.0 mph 84% 0.00 in 81 W/m2
11:22 20.2 °F 16.4 °F 29.75 in East 4.0 mph 4.0 mph 85% 0.00 in 74 W/m2
11:28 20.0 °F 16.2 °F 29.74 in East 3.0 mph 4.0 mph 85% 0.00 in 70 W/m2
11:34 20.0 °F 16.5 °F 29.74 in ENE 3.0 mph 9.0 mph 86% 0.00 in 69 W/m2
11:40 20.0 °F 16.5 °F 29.74 in East 4.0 mph 6.0 mph 86% 0.00 in 84 W/m2
11:46 20.1 °F 16.9 °F 29.73 in ENE 3.0 mph 6.0 mph 87% 0.00 in 77 W/m2
11:52 20.2 °F 17.0 °F 29.73 in ENE 3.0 mph 8.0 mph 87% 0.00 in 79 W/m2
11:58 20.2 °F 17.0 °F 29.73 in ENE 4.0 mph 8.0 mph 87% 0.00 in 93 W/m2
12:04 20.3 °F 17.3 °F 29.72 in ENE 4.0 mph 4.0 mph 88% 0.00 in 120 W/m2
12:10 20.4 °F 17.4 °F 29.71 in ENE 4.0 mph 4.0 mph 88% 0.00 in 181 W/m2
12:16 20.9 °F 17.9 °F 29.71 in ENE 4.0 mph 5.0 mph 88% 0.00 in 236 W/m2
12:22 21.2 °F 18.2 °F 29.71 in ENE 4.0 mph 7.0 mph 88% 0.00 in 221 W/m2
12:28 21.5 °F 18.2 °F 29.71 in ENE 4.0 mph 7.0 mph 87% 0.00 in 200 W/m2
12:34 21.7 °F 18.4 °F 29.70 in East 4.0 mph 8.0 mph 87% 0.00 in 197 W/m2
12:40 22.0 °F 18.5 °F 29.70 in East 4.0 mph 4.0 mph 86% 0.00 in 227 W/m2
12:46 22.1 °F 18.6 °F 29.70 in ENE 4.0 mph 5.0 mph 86% 0.00 in 271 W/m2
12:52 22.4 °F 18.6 °F 29.70 in NE 4.0 mph 6.0 mph 85% 0.00 in 441 W/m2
12:58 22.9 °F 18.8 °F 29.69 in East 5.0 mph 7.0 mph 84% 0.00 in 494 W/m2
13:04 23.5 °F 19.4 °F 29.69 in ESE 5.0 mph 5.0 mph 84% 0.00 in 499 W/m2
13:10 23.7 °F 19.3 °F 29.69 in SE 4.0 mph 4.0 mph 83% 0.00 in 489 W/m2
13:16 23.7 °F 19.0 °F 29.69 in ESE 4.0 mph 5.0 mph 82% 0.00 in 243 W/m2
13:22 23.7 °F 19.0 °F 29.69 in ESE 4.0 mph 5.0 mph 82% 0.00 in 248 W/m2
13:28 23.5 °F 18.8 °F 29.68 in ENE 4.0 mph 10.0 mph 82% 0.00 in 202 W/m2
13:34 23.4 °F 18.7 °F 29.68 in East 5.0 mph 5.0 mph 82% 0.00 in 190 W/m2
13:40 23.5 °F 18.8 °F 29.68 in East 5.0 mph 7.0 mph 82% 0.00 in 199 W/m2
13:46 23.8 °F 19.1 °F 29.68 in ENE 4.0 mph 7.0 mph 82% 0.00 in 183 W/m2
13:52 23.6 °F 18.9 °F 29.68 in NE 5.0 mph 6.0 mph 82% 0.00 in 188 W/m2
13:58 23.6 °F 18.9 °F 29.68 in East 5.0 mph 8.0 mph 82% 0.00 in 176 W/m2
14:04 23.6 °F 18.9 °F 29.68 in NE 5.0 mph 5.0 mph 82% 0.00 in 162 W/m2
14:10 23.6 °F 19.2 °F 29.68 in SE 4.0 mph 4.0 mph 83% 0.00 in 144 W/m2
14:16 23.7 °F 19.3 °F 29.68 in East 3.0 mph 4.0 mph 83% 0.00 in 142 W/m2
14:22 23.7 °F 19.0 °F 29.68 in ENE 4.0 mph 7.0 mph 82% 0.00 in 139 W/m2
14:28 23.8 °F 19.1 °F 29.68 in ENE 5.0 mph 7.0 mph 82% 0.00 in 128 W/m2
14:34 23.8 °F 19.1 °F 29.68 in ENE 4.0 mph 5.0 mph 82% 0.00 in 114 W/m2
14:40 23.7 °F 19.3 °F 29.68 in ENE 5.0 mph 5.0 mph 83% 0.00 in 109 W/m2
14:46 23.8 °F 19.4 °F 29.68 in ESE 4.0 mph 7.0 mph 83% 0.00 in 105 W/m2
14:52 23.7 °F 19.3 °F 29.68 in ENE 4.0 mph 5.0 mph 83% 0.00 in 102 W/m2
14:58 23.6 °F 19.2 °F 29.68 in ESE 5.0 mph 5.0 mph 83% 0.00 in 81 W/m2
15:04 23.6 °F 19.5 °F 29.68 in SSE 4.0 mph 5.0 mph 84% 0.00 in 74 W/m2
15:10 23.6 °F 19.5 °F 29.68 in ENE 4.0 mph 4.0 mph 84% 0.00 in 77 W/m2
15:16 23.7 °F 19.6 °F 29.68 in East 3.0 mph 4.0 mph 84% 0.00 in 63 W/m2
15:22 23.6 °F 19.5 °F 29.69 in East 4.0 mph 7.0 mph 84% 0.00 in 53 W/m2
15:28 23.7 °F 19.6 °F 29.69 in ESE 4.0 mph 7.0 mph 84% 0.00 in 53 W/m2
15:34 23.7 °F 19.9 °F 29.69 in NE 3.0 mph 7.0 mph 85% 0.00 in 56 W/m2
15:36 23.7 °F 19.6 °F 29.69 in SE 3.0 mph 7.0 mph 84% 0.00 in 56 W/m2
15:42 23.7 °F 19.6 °F 29.69 in ENE 4.0 mph 4.0 mph 84% 0.00 in 54 W/m2
15:48 23.7 °F 19.9 °F 29.69 in East 4.0 mph 5.0 mph 85% 0.00 in 53 W/m2
15:54 23.7 °F 19.9 °F 29.70 in ENE 4.0 mph 8.0 mph 85% 0.00 in 51 W/m2
16:00 23.7 °F 19.9 °F 29.70 in ESE 4.0 mph 4.0 mph 85% 0.00 in 53 W/m2
16:06 23.7 °F 19.9 °F 29.70 in ENE 4.0 mph 7.0 mph 85% 0.00 in 49 W/m2
16:12 23.7 °F 19.9 °F 29.70 in NE 4.0 mph 6.0 mph 85% 0.00 in 49 W/m2
16:18 23.8 °F 19.9 °F 29.70 in East 4.0 mph 6.0 mph 85% 0.00 in 44 W/m2
16:24 23.8 °F 19.9 °F 29.70 in ENE 4.0 mph 7.0 mph 85% 0.00 in 40 W/m2
16:30 23.8 °F 19.9 °F 29.70 in ENE 4.0 mph 4.0 mph 85% 0.00 in 37 W/m2
16:36 23.9 °F 20.0 °F 29.70 in SE 3.0 mph 4.0 mph 85% 0.00 in 35 W/m2
16:42 24.0 °F 20.1 °F 29.71 in ESE 2.0 mph 3.0 mph 85% 0.00 in 25 W/m2
16:48 24.0 °F 20.1 °F 29.71 in ENE 2.0 mph 5.0 mph 85% 0.00 in 16 W/m2
16:54 24.0 °F 20.1 °F 29.71 in East 3.0 mph 7.0 mph 85% 0.00 in 12 W/m2
17:00 24.1 °F 20.2 °F 29.71 in ENE 3.0 mph 3.0 mph 85% 0.00 in 11 W/m2
17:06 24.1 °F 20.2 °F 29.71 in ENE 2.0 mph 5.0 mph 85% 0.00 in 9 W/m2
17:12 24.1 °F 20.2 °F 29.71 in SE 3.0 mph 4.0 mph 85% 0.00 in 5 W/m2
17:18 24.1 °F 20.2 °F 29.71 in East 3.0 mph 4.0 mph 85% 0.00 in 0 W/m2
17:24 24.1 °F 20.2 °F 29.71 in ESE 3.0 mph 8.0 mph 85% 0.00 in 0 W/m2
17:30 24.1 °F 20.5 °F 29.71 in ENE 3.0 mph 7.0 mph 86% 0.00 in 0 W/m2
17:36 24.1 °F 20.2 °F 29.72 in ENE 4.0 mph 7.0 mph 85% 0.00 in 0 W/m2
17:42 24.2 °F 20.3 °F 29.72 in ESE 3.0 mph 3.0 mph 85% 0.00 in 0 W/m2
17:48 24.2 °F 20.6 °F 29.73 in East 3.0 mph 3.0 mph 86% 0.00 in 0 W/m2
17:54 24.1 °F 20.5 °F 29.73 in SE 3.0 mph 3.0 mph 86% 0.00 in 0 W/m2
18:00 24.1 °F 20.5 °F 29.73 in ENE 2.0 mph 3.0 mph 86% 0.00 in 0 W/m2
18:06 24.0 °F 20.7 °F 29.73 in ENE 3.0 mph 5.0 mph 87% 0.00 in 0 W/m2
18:12 24.0 °F 20.7 °F 29.73 in East 3.0 mph 3.0 mph 87% 0.00 in 0 W/m2
18:18 24.0 °F 20.7 °F 29.74 in ESE 2.0 mph 4.0 mph 87% 0.00 in 0 W/m2
18:24 24.0 °F 20.7 °F 29.74 in ENE 2.0 mph 3.0 mph 87% 0.00 in 0 W/m2
18:30 24.0 °F 20.7 °F 29.74 in East 3.0 mph 3.0 mph 87% 0.00 in 0 W/m2
18:36 24.0 °F 20.7 °F 29.74 in ENE 3.0 mph 5.0 mph 87% 0.00 in 0 W/m2
18:42 24.0 °F 20.7 °F 29.74 in ENE 2.0 mph 2.0 mph 87% 0.00 in 0 W/m2
18:48 24.0 °F 20.7 °F 29.74 in ENE 2.0 mph 3.0 mph 87% 0.00 in 0 W/m2
18:54 24.0 °F 20.7 °F 29.74 in ESE 2.0 mph 3.0 mph 87% 0.00 in 0 W/m2
19:00 24.0 °F 20.7 °F 29.74 in East 2.0 mph 3.0 mph 87% 0.00 in 0 W/m2
19:06 24.0 °F 20.7 °F 29.74 in East 2.0 mph 3.0 mph 87% 0.00 in 0 W/m2
19:12 23.9 °F 20.6 °F 29.74 in ENE 2.0 mph 3.0 mph 87% 0.00 in 0 W/m2
19:18 23.9 °F 20.6 °F 29.74 in ENE 2.0 mph 4.0 mph 87% 0.00 in 0 W/m2
19:24 23.8 °F 20.2 °F 29.74 in ENE 2.0 mph 4.0 mph 86% 0.00 in 0 W/m2
19:30 23.8 °F 20.2 °F 29.74 in East 2.0 mph 2.0 mph 86% 0.00 in 0 W/m2
19:36 23.8 °F 20.2 °F 29.74 in East 1.0 mph 3.0 mph 86% 0.00 in 0 W/m2
19:42 23.8 °F 20.2 °F 29.74 in ENE 1.0 mph 2.0 mph 86% 0.00 in 0 W/m2
19:48 23.8 °F 20.2 °F 29.74 in East 1.0 mph 5.0 mph 86% 0.00 in 0 W/m2
19:54 23.8 °F 20.2 °F 29.74 in East 1.0 mph 2.0 mph 86% 0.00 in 0 W/m2
20:00 23.8 °F 20.2 °F 29.74 in ENE 2.0 mph 2.0 mph 86% 0.00 in 0 W/m2
20:06 23.7 °F 20.1 °F 29.74 in East 2.0 mph 3.0 mph 86% 0.00 in 0 W/m2
20:12 23.7 °F 20.4 °F 29.74 in East 2.0 mph 2.0 mph 87% 0.00 in 0 W/m2
20:18 23.7 °F 20.4 °F 29.74 in East 2.0 mph 3.0 mph 87% 0.00 in 0 W/m2
20:24 23.7 °F 20.1 °F 29.74 in East 2.0 mph 5.0 mph 86% 0.00 in 0 W/m2
20:30 23.7 °F 20.1 °F 29.74 in East 2.0 mph 2.0 mph 86% 0.00 in 0 W/m2
20:36 23.5 °F 19.9 °F 29.74 in ENE 2.0 mph 2.0 mph 86% 0.00 in 0 W/m2
20:42 23.4 °F 19.8 °F 29.73 in East 2.0 mph 3.0 mph 86% 0.00 in 0 W/m2
20:48 23.4 °F 19.8 °F 29.73 in ENE 3.0 mph 3.0 mph 86% 0.00 in 0 W/m2
20:54 23.4 °F 19.8 °F 29.73 in East 2.0 mph 3.0 mph 86% 0.00 in 0 W/m2
21:00 23.3 °F 19.7 °F 29.73 in East 3.0 mph 3.0 mph 86% 0.00 in 0 W/m2
21:06 23.4 °F 19.8 °F 29.73 in East 3.0 mph 3.0 mph 86% 0.00 in 0 W/m2
21:12 23.3 °F 19.7 °F 29.73 in East 2.0 mph 2.0 mph 86% 0.00 in 0 W/m2
21:18 23.2 °F 19.6 °F 29.73 in ESE 1.0 mph 2.0 mph 86% 0.00 in 0 W/m2
21:24 23.1 °F 19.5 °F 29.73 in ESE 1.0 mph 2.0 mph 86% 0.00 in 0 W/m2
21:30 23.0 °F 19.4 °F 29.73 in ESE 2.0 mph 2.0 mph 86% 0.00 in 0 W/m2
21:36 22.8 °F 19.2 °F 29.73 in East 1.0 mph 3.0 mph 86% 0.00 in 0 W/m2
21:42 22.6 °F 19.0 °F 29.72 in East 1.0 mph 2.0 mph 86% 0.00 in 0 W/m2
21:48 22.5 °F 18.9 °F 29.72 in East 1.0 mph 2.0 mph 86% 0.00 in 0 W/m2
21:54 22.5 °F 19.2 °F 29.72 in ENE 2.0 mph 3.0 mph 87% 0.00 in 0 W/m2
22:00 22.4 °F 19.1 °F 29.72 in East 2.0 mph 2.0 mph 87% 0.00 in 0 W/m2
22:06 22.4 °F 19.1 °F 29.72 in East 1.0 mph 4.0 mph 87% 0.00 in 0 W/m2
22:12 22.6 °F 19.3 °F 29.72 in East 1.0 mph 1.0 mph 87% 0.00 in 0 W/m2
22:18 22.7 °F 19.4 °F 29.72 in ESE 1.0 mph 3.0 mph 87% 0.00 in 0 W/m2
22:24 22.8 °F 19.5 °F 29.72 in East 1.0 mph 1.0 mph 87% 0.00 in 0 W/m2
22:30 22.9 °F 19.6 °F 29.72 in ENE 1.0 mph 2.0 mph 87% 0.00 in 0 W/m2
22:36 23.0 °F 19.7 °F 29.71 in East 1.0 mph 2.0 mph 87% 0.00 in 0 W/m2
22:42 23.1 °F 19.8 °F 29.71 in East 1.0 mph 1.0 mph 87% 0.00 in 0 W/m2
22:48 23.1 °F 19.8 °F 29.71 in East 1.0 mph 1.0 mph 87% 0.00 in 0 W/m2
22:54 23.2 °F 19.9 °F 29.71 in East 2.0 mph 2.0 mph 87% 0.00 in 0 W/m2
23:00 23.2 °F 20.2 °F 29.71 in East 1.0 mph 1.0 mph 88% 0.00 in 0 W/m2
23:06 23.2 °F 20.2 °F 29.71 in East 1.0 mph 1.0 mph 88% 0.00 in 0 W/m2
23:12 23.2 °F 20.2 °F 29.71 in ESE 1.0 mph 3.0 mph 88% 0.00 in 0 W/m2
23:18 23.3 °F 20.3 °F 29.71 in East 1.0 mph 3.0 mph 88% 0.00 in 0 W/m2
23:24 23.3 °F 20.3 °F 29.71 in ENE 1.0 mph 3.0 mph 88% 0.00 in 0 W/m2
23:30 23.3 °F 20.3 °F 29.71 in East 1.0 mph 1.0 mph 88% 0.00 in 0 W/m2
23:36 23.4 °F 20.4 °F 29.70 in East 1.0 mph 2.0 mph 88% 0.00 in 0 W/m2
23:42 23.4 °F 20.6 °F 29.70 in ENE 1.0 mph 2.0 mph 89% 0.00 in 0 W/m2
23:48 23.5 °F 20.7 °F 29.70 in ENE 1.0 mph 3.0 mph 89% 0.00 in 0 W/m2
23:54 23.5 °F 20.7 °F 29.70 in ENE 2.0 mph 2.0 mph 89% 0.00 in 0 W/m2
Country Meadow, Clay, NY, USA
Compliments of Weather Underground - 2 mb